Time;durP1;ratioP1;P1;durP2;ratioP2;P2;SDS_P1;SDS_P2;PMS_P1;PMS_P2;Temp;Humidity;BMP_temperature;BMP_pressure;BME280_temperature;BME280_humidity;BME280_pressure;Samples;Min_cycle;Max_cycle;Signal;HPM_P1;HPM_P2
2023/11/19 00:01:40;;;;;;;0.30;0.20;;;6.40;99.90;;;;;;5105657;28;20545;-76
2023/11/19 00:04:06;;;;;;;0.30;0.20;;;6.40;99.90;;;;;;5121917;27;20200;-76
2023/11/19 00:06:32;;;;;;;0.30;0.20;;;6.30;99.90;;;;;;5106471;28;20422;-76
2023/11/19 00:08:57;;;;;;;0.30;0.20;;;6.30;99.90;;;;;;5121563;27;20536;-76
2023/11/19 00:11:23;;;;;;;0.30;0.20;;;6.20;99.90;;;;;;5105805;28;20461;-77
2023/11/19 00:13:48;;;;;;;0.30;0.20;;;6.20;99.90;;;;;;5121814;27;20225;-76
2023/11/19 00:16:14;;;;;;;0.30;0.30;;;6.20;99.90;;;;;;5105715;28;20287;-76
2023/11/19 00:18:39;;;;;;;0.30;0.20;;;6.20;99.90;;;;;;5121637;27;20257;-76
2023/11/19 00:21:07;;;;;;;0.30;0.20;;;6.20;99.90;;;;;;5105970;28;20214;-76
2023/11/19 00:23:33;;;;;;;0.30;0.20;;;6.20;99.90;;;;;;5121611;27;20840;-76
2023/11/19 00:25:59;;;;;;;0.30;0.20;;;6.20;99.90;;;;;;5105606;28;20343;-76
2023/11/19 00:28:24;;;;;;;0.30;0.20;;;6.10;99.90;;;;;;5106188;28;20227;-76
2023/11/19 00:30:50;;;;;;;0.30;0.30;;;6.10;99.90;;;;;;5121096;27;20223;-76
2023/11/19 00:33:16;;;;;;;0.30;0.20;;;6.10;99.90;;;;;;5105692;28;20210;-76
2023/11/19 00:35:42;;;;;;;0.30;0.20;;;6.00;99.90;;;;;;5104975;28;20403;-75
2023/11/19 00:38:07;;;;;;;0.30;0.20;;;6.00;99.90;;;;;;5121086;27;20707;-76
2023/11/19 00:40:33;;;;;;;0.30;0.20;;;6.00;99.90;;;;;;5105783;28;20333;-76
2023/11/19 00:42:58;;;;;;;0.30;0.30;;;5.90;99.90;;;;;;5104545;28;20199;-76
2023/11/19 00:45:25;;;;;;;0.30;0.20;;;5.90;99.90;;;;;;5105433;28;20523;-76
2023/11/19 00:47:50;;;;;;;0.30;0.30;;;5.90;99.90;;;;;;5120993;27;20219;-76
2023/11/19 00:50:17;;;;;;;0.30;0.20;;;5.80;99.90;;;;;;5105396;28;20572;-76
2023/11/19 00:52:43;;;;;;;0.30;0.20;;;5.80;99.90;;;;;;5105192;28;20168;-76
2023/11/19 00:55:08;;;;;;;0.30;0.27;;;5.70;99.90;;;;;;5105903;28;20163;-76
2023/11/19 00:57:35;;;;;;;0.30;0.30;;;5.70;99.90;;;;;;5105300;28;20179;-76
2023/11/19 01:00:01;;;;;;;0.30;0.28;;;5.60;99.90;;;;;;5105483;28;20253;-76
2023/11/19 01:02:26;;;;;;;0.30;0.20;;;5.60;99.90;;;;;;5121042;28;20176;-76
2023/11/19 01:04:52;;;;;;;0.30;0.20;;;5.60;99.90;;;;;;5121192;28;20235;-76
2023/11/19 01:07:18;;;;;;;0.30;0.20;;;5.60;99.90;;;;;;5105179;28;20438;-76
2023/11/19 01:09:43;;;;;;;0.30;0.30;;;5.60;99.90;;;;;;5105406;28;20718;-76
2023/11/19 01:12:10;;;;;;;0.30;0.30;;;5.60;99.90;;;;;;5120668;28;20585;-76
2023/11/19 01:14:36;;;;;;;0.30;0.30;;;5.60;99.90;;;;;;5121338;28;20203;-76
2023/11/19 01:17:02;;;;;;;0.30;0.30;;;5.50;99.90;;;;;;5120345;28;20580;-76
2023/11/19 01:19:28;;;;;;;0.30;0.30;;;5.50;99.90;;;;;;5105252;28;20191;-76
2023/11/19 01:21:54;;;;;;;0.30;0.30;;;5.50;99.90;;;;;;5104725;28;20431;-76
2023/11/19 01:24:20;;;;;;;0.30;0.20;;;5.50;99.90;;;;;;5120799;28;20345;-75
2023/11/19 01:26:49;;;;;;;0.30;0.30;;;5.50;99.90;;;;;;5104714;28;20225;-76
2023/11/19 01:29:15;;;;;;;0.30;0.30;;;5.50;99.90;;;;;;5105315;28;20781;-75
2023/11/19 01:31:46;;;;;;;0.30;0.20;;;5.40;99.90;;;;;;5104890;28;20168;-76
2023/11/19 01:34:12;;;;;;;0.30;0.20;;;5.40;99.90;;;;;;5105437;28;20184;-77
2023/11/19 01:36:39;;;;;;;0.30;0.20;;;5.40;99.90;;;;;;5104920;28;20843;-77
2023/11/19 01:39:05;;;;;;;0.30;0.20;;;5.30;99.90;;;;;;5104790;28;20455;-76
2023/11/19 01:41:35;;;;;;;0.30;0.30;;;5.30;99.90;;;;;;5104910;28;20599;-77
2023/11/19 01:44:02;;;;;;;0.30;0.20;;;5.30;99.90;;;;;;5103992;28;20188;-77
2023/11/19 01:46:28;;;;;;;0.30;0.30;;;5.30;99.90;;;;;;5120856;28;20264;-77
2023/11/19 01:48:55;;;;;;;0.30;0.20;;;5.20;99.90;;;;;;5104739;28;20298;-76
2023/11/19 01:51:21;;;;;;;0.30;0.30;;;5.20;99.90;;;;;;5120410;28;20179;-76
2023/11/19 01:53:48;;;;;;;0.30;0.20;;;5.10;99.90;;;;;;5104781;28;20238;-76
2023/11/19 01:56:15;;;;;;;0.30;0.20;;;5.10;99.90;;;;;;5104811;28;20640;-76
2023/11/19 01:58:44;;;;;;;0.30;0.30;;;5.00;99.90;;;;;;5120481;28;20604;-76
2023/11/19 02:01:11;;;;;;;0.30;0.20;;;5.00;99.90;;;;;;5104871;28;20581;-76
2023/11/19 02:03:37;;;;;;;0.30;0.20;;;5.00;99.90;;;;;;5108576;28;20652;-76
2023/11/19 02:06:04;;;;;;;0.30;0.30;;;4.90;99.90;;;;;;5108426;28;20168;-76
2023/11/19 02:08:30;;;;;;;0.30;0.20;;;4.90;99.90;;;;;;5109069;28;20524;-76
2023/11/19 02:10:59;;;;;;;0.30;0.20;;;4.80;99.90;;;;;;5107991;28;20601;-77
2023/11/19 02:13:26;;;;;;;0.30;0.30;;;4.90;99.90;;;;;;5108669;28;20623;-77
2023/11/19 02:15:51;;;;;;;0.30;0.20;;;4.80;99.90;;;;;;5107850;28;20416;-77
2023/11/19 02:18:27;;;;;;;0.30;0.30;;;4.90;99.90;;;;;;5124232;27;20204;-77
2023/11/19 02:20:59;;;;;;;0.30;0.20;;;4.80;99.90;;;;;;5123764;27;20187;-77
2023/11/19 02:23:28;;;;;;;0.30;0.30;;;4.90;99.90;;;;;;5124004;27;20604;-76
2023/11/19 02:26:19;;;;;;;0.30;0.30;;;4.80;99.90;;;;;;5124067;27;20681;-76
2023/11/19 02:28:45;;;;;;;0.30;0.20;;;4.80;99.90;;;;;;5124078;27;20231;-76
2023/11/19 02:31:11;;;;;;;0.30;0.20;;;4.70;99.90;;;;;;5107949;27;20342;-76
2023/11/19 02:33:40;;;;;;;0.30;0.30;;;4.70;99.90;;;;;;5107857;28;20276;-76
2023/11/19 02:36:07;;;;;;;0.30;0.30;;;4.60;99.90;;;;;;5123400;27;20779;-76
2023/11/19 02:38:34;;;;;;;0.30;0.20;;;4.60;99.90;;;;;;5123785;27;20548;-76
2023/11/19 02:41:04;;;;;;;0.30;0.20;;;4.60;99.90;;;;;;5123247;27;20187;-75
2023/11/19 02:43:33;;;;;;;0.30;0.30;;;4.50;99.90;;;;;;5107758;28;20569;-75
2023/11/19 02:46:02;;;;;;;0.30;0.20;;;4.50;99.90;;;;;;5122639;27;20422;-75
2023/11/19 02:48:27;;;;;;;0.30;0.28;;;4.50;99.90;;;;;;5123316;27;20326;-75
2023/11/19 02:50:53;;;;;;;0.30;0.30;;;4.50;99.90;;;;;;5123119;27;20262;-75
2023/11/19 02:53:21;;;;;;;0.30;0.20;;;4.50;99.90;;;;;;5123262;27;20283;-76
2023/11/19 02:55:49;;;;;;;0.30;0.20;;;4.40;99.90;;;;;;5107503;28;20167;-75
2023/11/19 02:58:23;;;;;;;0.30;0.30;;;4.40;99.90;;;;;;5123554;27;20215;-75
2023/11/19 03:00:56;;;;;;;0.30;0.20;;;4.40;99.90;;;;;;5107593;27;20497;-76
2023/11/19 03:03:26;;;;;;;0.30;0.30;;;4.40;99.90;;;;;;5123191;27;20212;-75
2023/11/19 03:05:51;;;;;;;0.30;0.30;;;4.40;99.90;;;;;;5122642;27;20276;-75
2023/11/19 03:08:17;;;;;;;0.30;0.30;;;4.40;99.90;;;;;;5122667;27;20327;-76
2023/11/19 03:10:43;;;;;;;0.30;0.30;;;4.40;99.90;;;;;;5122805;27;20215;-75
2023/11/19 03:13:19;;;;;;;0.30;0.20;;;4.40;99.90;;;;;;5121793;27;20778;-75
2023/11/19 03:15:45;;;;;;;0.30;0.30;;;4.40;99.90;;;;;;5122479;27;20223;-75
2023/11/19 03:18:11;;;;;;;0.30;0.30;;;4.40;99.90;;;;;;5107544;28;20683;-76
2023/11/19 03:20:37;;;;;;;0.30;0.20;;;4.40;99.90;;;;;;5122637;27;20175;-75
2023/11/19 03:23:03;;;;;;;0.30;0.30;;;4.40;99.90;;;;;;5107249;28;20192;-76
2023/11/19 03:25:36;;;;;;;0.30;0.20;;;4.40;99.90;;;;;;5106814;28;20732;-75
2023/11/19 03:28:03;;;;;;;0.40;0.40;;;4.30;99.90;;;;;;5107190;28;20442;-75
2023/11/19 03:30:30;;;;;;;0.30;0.30;;;4.30;99.90;;;;;;5122727;27;20267;-76
2023/11/19 03:32:56;;;;;;;0.30;0.20;;;4.30;99.90;;;;;;5107103;28;20679;-76
2023/11/19 03:35:23;;;;;;;0.30;0.20;;;4.20;99.90;;;;;;5106427;28;20167;-76
2023/11/19 03:37:49;;;;;;;0.30;0.20;;;4.20;99.90;;;;;;5122344;27;20270;-76
2023/11/19 03:40:15;;;;;;;0.30;0.30;;;4.20;99.90;;;;;;5106504;28;20523;-75
2023/11/19 03:42:41;;;;;;;0.30;0.30;;;4.20;99.90;;;;;;5106397;28;20253;-76
2023/11/19 03:45:08;;;;;;;0.30;0.20;;;4.20;99.90;;;;;;5106829;28;20175;-76
2023/11/19 03:47:35;;;;;;;0.30;0.30;;;4.10;99.90;;;;;;5106930;28;20994;-76
2023/11/19 03:50:01;;;;;;;0.30;0.30;;;4.20;99.90;;;;;;5105367;28;20407;-76
2023/11/19 03:52:29;;;;;;;0.30;0.20;;;4.20;99.90;;;;;;5106598;28;20272;-76
2023/11/19 03:54:56;;;;;;;0.30;0.30;;;4.20;99.90;;;;;;5122382;27;20402;-76
2023/11/19 03:57:22;;;;;;;0.30;0.30;;;4.10;99.90;;;;;;5106197;28;20228;-76
2023/11/19 03:59:48;;;;;;;0.30;0.30;;;4.10;99.90;;;;;;5106983;28;20583;-76
2023/11/19 04:02:14;;;;;;;0.30;0.30;;;4.10;99.90;;;;;;5106159;28;20704;-76
2023/11/19 04:04:39;;;;;;;0.30;0.30;;;4.20;99.90;;;;;;5106442;28;20428;-76
2023/11/19 04:07:06;;;;;;;0.30;0.30;;;4.20;99.90;;;;;;5121838;27;20713;-76
2023/11/19 04:09:34;;;;;;;0.30;0.20;;;4.20;99.90;;;;;;5105999;28;20222;-76
2023/11/19 04:12:00;;;;;;;0.30;0.20;;;4.20;99.90;;;;;;5105829;28;20172;-76
2023/11/19 04:14:26;;;;;;;0.30;0.20;;;4.20;99.90;;;;;;5105963;28;20198;-76
2023/11/19 04:16:53;;;;;;;0.30;0.20;;;4.20;99.90;;;;;;5121526;27;20231;-76
2023/11/19 04:19:19;;;;;;;0.30;0.20;;;4.20;99.90;;;;;;5121395;27;20755;-76
2023/11/19 04:21:45;;;;;;;0.30;0.30;;;4.20;99.90;;;;;;5105961;28;20539;-76
2023/11/19 04:24:15;;;;;;;0.30;0.30;;;4.20;99.90;;;;;;5121521;27;20196;-75
2023/11/19 04:26:45;;;;;;;0.30;0.30;;;4.20;99.90;;;;;;5105787;28;20404;-76
2023/11/19 04:29:16;;;;;;;0.30;0.30;;;4.20;99.90;;;;;;5121772;27;20299;-75
2023/11/19 04:31:44;;;;;;;0.30;0.30;;;4.20;99.90;;;;;;5121198;27;20199;-76
2023/11/19 04:34:11;;;;;;;0.30;0.20;;;4.10;99.90;;;;;;5121528;27;20944;-75
2023/11/19 04:36:37;;;;;;;0.30;0.20;;;4.10;99.90;;;;;;5105842;28;20168;-75
2023/11/19 04:39:08;;;;;;;0.30;0.30;;;4.00;99.90;;;;;;5105657;27;20191;-76
2023/11/19 04:41:34;;;;;;;0.30;0.30;;;4.00;99.90;;;;;;5105272;28;20164;-76
2023/11/19 04:44:00;;;;;;;0.30;0.20;;;4.00;99.90;;;;;;5105595;28;20684;-76
2023/11/19 04:46:26;;;;;;;0.30;0.30;;;4.00;99.90;;;;;;5105221;28;20265;-76
2023/11/19 04:48:51;;;;;;;0.30;0.30;;;4.00;99.90;;;;;;5105524;28;20818;-76
2023/11/19 04:51:17;;;;;;;0.30;0.20;;;3.90;99.90;;;;;;5104718;28;20259;-75
2023/11/19 04:53:43;;;;;;;0.30;0.30;;;3.90;99.90;;;;;;5105549;28;20880;-76
2023/11/19 04:56:10;;;;;;;0.30;0.30;;;3.90;99.90;;;;;;5105397;28;20542;-76
2023/11/19 04:58:36;;;;;;;0.30;0.20;;;3.90;99.90;;;;;;5121357;27;20784;-76
2023/11/19 05:01:05;;;;;;;0.30;0.30;;;3.80;99.90;;;;;;5105175;28;20172;-76
2023/11/19 05:03:31;;;;;;;0.30;0.30;;;3.80;99.90;;;;;;5105420;28;20195;-75
2023/11/19 05:05:57;;;;;;;0.30;0.30;;;3.80;99.90;;;;;;5121093;28;20633;-76
2023/11/19 05:08:23;;;;;;;0.30;0.30;;;3.80;99.90;;;;;;5121160;28;20211;-76
2023/11/19 05:10:49;;;;;;;0.30;0.30;;;3.70;99.90;;;;;;5105276;28;20572;-76
2023/11/19 05:13:15;;;;;;;0.30;0.20;;;3.70;99.90;;;;;;5120867;28;20227;-76
2023/11/19 05:15:41;;;;;;;0.30;0.20;;;3.70;99.90;;;;;;5104654;28;20671;-76
2023/11/19 05:18:06;;;;;;;0.30;0.30;;;3.60;99.90;;;;;;5105252;28;21148;-75
2023/11/19 05:20:32;;;;;;;0.30;0.30;;;3.60;99.90;;;;;;5120491;28;20375;-75
2023/11/19 05:23:00;;;;;;;0.30;0.30;;;3.60;99.90;;;;;;5120556;28;20476;-75
2023/11/19 05:25:26;;;;;;;0.30;0.20;;;3.60;99.90;;;;;;5120635;28;20735;-74
2023/11/19 05:27:52;;;;;;;0.30;0.20;;;3.60;99.90;;;;;;5120876;28;20184;-75
2023/11/19 05:30:18;;;;;;;0.30;0.30;;;3.70;99.90;;;;;;5120630;28;20517;-76
2023/11/19 05:32:43;;;;;;;0.30;0.20;;;3.70;99.90;;;;;;5120908;28;20436;-75
2023/11/19 05:35:09;;;;;;;0.30;0.20;;;3.70;99.90;;;;;;5105252;28;20168;-75
2023/11/19 05:37:35;;;;;;;0.30;0.20;;;3.70;99.90;;;;;;5106533;28;20179;-75
2023/11/19 05:40:03;;;;;;;0.30;0.20;;;3.70;99.90;;;;;;5108969;28;20704;-76
2023/11/19 05:42:29;;;;;;;0.30;0.30;;;3.60;99.90;;;;;;5124402;27;20370;-76
2023/11/19 05:44:54;;;;;;;0.30;0.20;;;3.60;99.90;;;;;;5124618;27;20187;-76
2023/11/19 05:47:20;;;;;;;0.30;0.20;;;3.60;99.90;;;;;;5124457;27;20186;-75
2023/11/19 05:49:46;;;;;;;0.30;0.20;;;3.60;99.90;;;;;;5124354;27;20219;-76
2023/11/19 05:52:12;;;;;;;0.30;0.20;;;3.60;99.90;;;;;;5123498;27;20407;-75
2023/11/19 05:54:38;;;;;;;0.30;0.30;;;3.60;99.90;;;;;;5108746;28;20191;-76
2023/11/19 05:57:10;;;;;;;0.30;0.30;;;3.60;99.90;;;;;;5124292;27;20184;-75
2023/11/19 05:59:36;;;;;;;0.30;0.30;;;3.50;99.90;;;;;;5108789;28;20297;-76
2023/11/19 06:02:02;;;;;;;0.30;0.30;;;3.60;99.90;;;;;;5124215;27;20187;-76
2023/11/19 06:04:28;;;;;;;0.30;0.20;;;3.60;99.90;;;;;;5123993;27;20188;-76
2023/11/19 06:06:57;;;;;;;0.30;0.20;;;3.60;99.90;;;;;;5108559;28;20636;-76
2023/11/19 06:09:23;;;;;;;0.30;0.20;;;3.60;99.90;;;;;;5108345;28;20438;-76
2023/11/19 06:11:52;;;;;;;0.30;0.20;;;3.60;99.90;;;;;;5108020;28;20183;-76
2023/11/19 06:14:18;;;;;;;0.30;0.20;;;3.60;99.90;;;;;;5108016;28;20698;-75
2023/11/19 06:16:44;;;;;;;0.30;0.20;;;3.60;99.90;;;;;;5108361;28;20223;-75
2023/11/19 06:19:11;;;;;;;0.30;0.20;;;3.60;99.90;;;;;;5108587;28;20256;-75
2023/11/19 06:21:37;;;;;;;0.30;0.20;;;3.60;99.90;;;;;;5108021;27;20435;-76
2023/11/19 06:24:03;;;;;;;0.30;0.20;;;3.60;99.90;;;;;;5108235;28;20317;-75
2023/11/19 06:26:29;;;;;;;2.83;2.67;;;3.60;99.90;;;;;;5123792;27;20176;-76
2023/11/19 06:28:54;;;;;;;0.30;0.20;;;3.60;99.90;;;;;;5108158;28;20478;-76
2023/11/19 06:31:20;;;;;;;0.30;0.20;;;3.70;99.90;;;;;;5107982;28;20553;-76
2023/11/19 06:33:46;;;;;;;0.30;0.20;;;3.70;99.90;;;;;;5108224;28;20200;-76
2023/11/19 06:36:16;;;;;;;0.30;0.20;;;3.70;99.90;;;;;;5123504;27;20245;-75
2023/11/19 06:38:42;;;;;;;0.30;0.20;;;3.70;99.90;;;;;;5123466;27;20322;-75
2023/11/19 06:41:09;;;;;;;0.30;0.20;;;3.80;99.90;;;;;;5123531;27;20194;-76
2023/11/19 06:43:36;;;;;;;0.30;0.20;;;3.80;99.90;;;;;;5123754;27;20488;-76
2023/11/19 06:46:02;;;;;;;0.30;0.20;;;3.80;99.90;;;;;;5123368;27;20275;-76
2023/11/19 06:48:28;;;;;;;0.30;0.20;;;3.90;99.90;;;;;;5123322;27;20718;-75
2023/11/19 06:50:53;;;;;;;0.30;0.30;;;4.00;99.90;;;;;;5106466;28;20255;-76
2023/11/19 06:53:19;;;;;;;0.30;0.30;;;4.10;99.90;;;;;;5122815;27;20727;-76
2023/11/19 06:55:45;;;;;;;0.30;0.30;;;4.30;99.90;;;;;;5123388;27;20176;-76
2023/11/19 06:58:12;;;;;;;0.40;0.30;;;4.60;99.90;;;;;;5107871;28;20191;-76
2023/11/19 07:00:37;;;;;;;0.30;0.20;;;5.00;99.90;;;;;;5107288;28;20168;-75
2023/11/19 07:03:03;;;;;;;0.30;0.20;;;5.20;99.90;;;;;;5123058;27;20204;-76
2023/11/19 07:05:30;;;;;;;0.30;0.20;;;5.40;99.90;;;;;;5107105;28;20172;-76
2023/11/19 07:07:55;;;;;;;0.30;0.20;;;5.40;99.90;;;;;;5107122;28;20547;-75
2023/11/19 07:10:21;;;;;;;0.30;0.30;;;5.40;99.90;;;;;;5107241;28;20176;-75
2023/11/19 07:12:49;;;;;;;0.30;0.30;;;5.30;99.90;;;;;;5122952;27;20186;-77
2023/11/19 07:15:17;;;;;;;0.30;0.20;;;5.20;99.90;;;;;;5122609;27;20225;-76
2023/11/19 07:17:44;;;;;;;0.30;0.20;;;5.30;99.90;;;;;;5107158;28;20241;-76
2023/11/19 07:20:15;;;;;;;0.30;0.20;;;5.40;99.90;;;;;;5107228;28;20579;-76
2023/11/19 07:22:45;;;;;;;0.30;0.20;;;5.50;99.90;;;;;;5107311;28;20229;-76
2023/11/19 07:25:13;;;;;;;0.30;0.20;;;5.50;99.90;;;;;;5106974;28;20263;-76
2023/11/19 07:27:38;;;;;;;0.30;0.20;;;5.60;99.90;;;;;;5107178;27;20616;-76
2023/11/19 07:30:07;;;;;;;0.50;0.47;;;5.60;99.90;;;;;;5107028;28;20264;-76
2023/11/19 07:32:33;;;;;;;0.30;0.20;;;5.70;99.90;;;;;;5121736;27;20184;-76
2023/11/19 07:34:59;;;;;;;0.30;0.30;;;5.70;99.90;;;;;;5105713;28;20854;-75
2023/11/19 07:37:25;;;;;;;5.95;5.65;;;5.80;99.90;;;;;;5122246;27;20183;-76
2023/11/19 07:39:50;;;;;;;0.30;0.20;;;6.10;99.90;;;;;;5106579;28;20199;-76
2023/11/19 07:42:16;;;;;;;0.40;0.20;;;6.40;99.90;;;;;;5122346;27;20588;-76
2023/11/19 07:44:44;;;;;;;0.30;0.30;;;6.60;99.90;;;;;;5106519;28;20965;-76
2023/11/19 07:47:10;;;;;;;0.30;0.20;;;6.90;99.90;;;;;;5106703;28;20412;-76
2023/11/19 07:49:35;;;;;;;0.30;0.30;;;7.50;99.90;;;;;;5106508;28;20211;-75
2023/11/19 07:52:02;;;;;;;0.30;0.30;;;8.30;99.90;;;;;;5106353;28;20435;-76
2023/11/19 07:54:28;;;;;;;1.80;1.80;;;9.40;99.90;;;;;;5121451;27;20668;-76
2023/11/19 07:56:55;;;;;;;0.30;0.27;;;10.30;99.90;;;;;;5106234;28;20178;-76
2023/11/19 07:59:20;;;;;;;0.30;0.30;;;11.20;99.90;;;;;;5121732;27;20199;-76
2023/11/19 08:01:46;;;;;;;0.77;0.77;;;12.00;99.90;;;;;;5120603;27;20183;-77
2023/11/19 08:04:12;;;;;;;0.40;0.30;;;12.70;99.90;;;;;;5104002;28;20440;-77
2023/11/19 08:06:38;;;;;;;0.40;0.30;;;13.10;99.90;;;;;;5105261;28;20155;-77
2023/11/19 08:09:03;;;;;;;0.67;0.67;;;13.10;99.90;;;;;;5104032;28;20215;-76
2023/11/19 08:11:29;;;;;;;0.60;0.60;;;13.00;99.90;;;;;;5104386;28;20210;-77
2023/11/19 08:13:55;;;;;;;0.70;0.70;;;12.60;99.90;;;;;;5104144;28;20526;-78
2023/11/19 08:16:21;;;;;;;0.30;0.20;;;12.20;99.90;;;;;;5104741;28;20435;-78
2023/11/19 08:18:46;;;;;;;0.30;0.20;;;11.70;99.90;;;;;;5105874;28;20242;-78
2023/11/19 08:21:13;;;;;;;5.30;5.10;;;11.20;99.90;;;;;;5104729;28;20172;-78
2023/11/19 08:23:39;;;;;;;0.57;0.57;;;10.90;99.90;;;;;;5104344;28;20887;-76
2023/11/19 08:26:05;;;;;;;0.43;0.43;;;10.70;99.90;;;;;;5102873;28;20275;-76
2023/11/19 08:28:31;;;;;;;0.30;0.20;;;10.60;99.90;;;;;;5104165;28;20227;-76
2023/11/19 08:30:58;;;;;;;0.30;0.20;;;10.60;99.90;;;;;;5100840;28;20595;-76
2023/11/19 08:33:24;;;;;;;0.30;0.20;;;10.50;99.90;;;;;;5103324;28;20444;-76
2023/11/19 08:35:50;;;;;;;0.30;0.20;;;10.50;99.90;;;;;;5102721;28;20172;-76
2023/11/19 08:38:15;;;;;;;0.30;0.20;;;10.30;99.90;;;;;;5104119;28;20229;-76
2023/11/19 08:40:41;;;;;;;1.23;1.13;;;10.10;99.90;;;;;;5118296;27;20172;-76
2023/11/19 08:43:06;;;;;;;2.27;1.30;;;9.90;99.90;;;;;;5119425;27;20265;-76
2023/11/19 08:45:32;;;;;;;0.50;0.50;;;9.70;99.90;;;;;;5103532;28;20217;-78
2023/11/19 08:47:58;;;;;;;0.30;0.20;;;9.60;99.90;;;;;;5103710;28;20641;-75
2023/11/19 08:50:24;;;;;;;17.70;11.27;;;9.30;99.90;;;;;;5103620;28;20314;-75
2023/11/19 08:52:49;;;;;;;0.30;0.20;;;9.10;99.90;;;;;;5103889;28;20225;-75
2023/11/19 08:55:15;;;;;;;1.30;1.30;;;8.90;99.90;;;;;;5103328;28;20164;-75
2023/11/19 08:57:41;;;;;;;0.30;0.20;;;8.60;99.90;;;;;;5118485;27;20222;-75
2023/11/19 09:00:07;;;;;;;0.73;0.73;;;8.60;99.90;;;;;;5119346;27;20182;-75
2023/11/19 09:02:39;;;;;;;0.30;0.20;;;8.60;99.90;;;;;;5104633;28;20172;-76
2023/11/19 09:05:09;;;;;;;0.30;0.20;;;8.60;99.90;;;;;;5121463;27;20237;-75
2023/11/19 09:07:35;;;;;;;0.30;0.30;;;8.60;99.90;;;;;;5120604;28;20378;-75
2023/11/19 09:10:01;;;;;;;0.30;0.20;;;8.60;99.90;;;;;;5120453;28;20208;-75
2023/11/19 09:12:27;;;;;;;0.30;0.20;;;8.50;99.90;;;;;;5122251;27;20180;-76
2023/11/19 09:14:52;;;;;;;0.30;0.20;;;8.50;99.90;;;;;;5124937;27;20248;-75
2023/11/19 09:17:18;;;;;;;0.30;0.20;;;8.50;99.90;;;;;;5124840;27;20479;-78
2023/11/19 09:19:44;;;;;;;0.30;0.20;;;8.40;99.90;;;;;;5109308;28;20529;-76
2023/11/19 09:22:10;;;;;;;0.30;0.20;;;8.30;99.90;;;;;;5109433;28;20415;-77
2023/11/19 09:24:35;;;;;;;0.30;0.30;;;8.30;99.90;;;;;;5108936;28;20565;-76
2023/11/19 09:27:01;;;;;;;0.30;0.20;;;8.20;99.90;;;;;;5118662;27;20213;-76
2023/11/19 09:29:27;;;;;;;0.30;0.30;;;8.30;99.90;;;;;;5107104;28;20219;-77
2023/11/19 09:31:52;;;;;;;0.30;0.20;;;8.20;99.90;;;;;;5106989;28;20194;-76
2023/11/19 09:34:18;;;;;;;0.30;0.20;;;8.10;99.90;;;;;;5104714;28;20565;-75
2023/11/19 09:36:44;;;;;;;0.30;0.20;;;7.90;99.90;;;;;;5108014;28;20172;-75
2023/11/19 09:39:17;;;;;;;0.30;0.20;;;7.90;99.90;;;;;;5107963;28;20241;-76
2023/11/19 09:41:45;;;;;;;0.30;0.20;;;7.80;99.90;;;;;;5110336;27;20717;-77
2023/11/19 09:44:11;;;;;;;0.30;0.20;;;7.70;99.90;;;;;;5107455;28;22011;-74
2023/11/19 09:46:41;;;;;;;0.30;0.20;;;7.70;99.90;;;;;;5105649;28;20274;-77
2023/11/19 09:49:08;;;;;;;0.30;0.30;;;7.70;99.90;;;;;;5123923;27;20229;-76
2023/11/19 09:51:35;;;;;;;0.30;0.20;;;7.80;99.90;;;;;;5112549;27;20179;-77
2023/11/19 09:54:01;;;;;;;0.30;0.20;;;7.80;99.90;;;;;;5095101;28;20276;-76
2023/11/19 09:56:29;;;;;;;0.30;0.20;;;8.00;99.90;;;;;;5104840;28;20187;-76
2023/11/19 09:58:55;;;;;;;0.30;0.20;;;8.00;99.90;;;;;;5103035;28;20204;-76
2023/11/19 10:01:21;;;;;;;1.95;1.55;;;8.10;99.90;;;;;;5106594;28;20180;-79
2023/11/19 10:03:49;;;;;;;0.30;0.20;;;8.10;99.90;;;;;;5106979;28;20250;-78
2023/11/19 10:06:16;;;;;;;0.30;0.20;;;8.10;99.90;;;;;;5105069;28;20502;-77
2023/11/19 10:08:43;;;;;;;0.30;0.20;;;8.10;99.90;;;;;;5106651;28;20228;-78
2023/11/19 10:11:11;;;;;;;0.30;0.20;;;8.10;99.90;;;;;;5109852;27;20222;-77
2023/11/19 10:13:37;;;;;;;0.30;0.20;;;8.10;99.90;;;;;;5101693;28;20215;-77
2023/11/19 10:16:13;;;;;;;0.30;0.20;;;8.20;99.90;;;;;;5106028;28;20586;-78
2023/11/19 10:18:50;;;;;;;0.30;0.20;;;8.20;99.90;;;;;;5106089;28;20213;-77
2023/11/19 10:21:18;;;;;;;0.30;0.20;;;8.20;99.90;;;;;;5105163;28;20195;-77
2023/11/19 10:23:52;;;;;;;1.52;1.42;;;8.20;99.90;;;;;;5105491;28;20199;-75
2023/11/19 10:26:18;;;;;;;0.30;0.20;;;8.30;99.90;;;;;;5104189;28;20198;-74
2023/11/19 10:28:46;;;;;;;0.30;0.20;;;8.30;99.90;;;;;;5111396;27;20223;-76
2023/11/19 10:31:17;;;;;;;0.30;0.30;;;8.30;99.90;;;;;;5087330;28;20176;-74
2023/11/19 10:33:44;;;;;;;0.30;0.20;;;8.30;99.90;;;;;;5105895;28;20202;-75
2023/11/19 10:36:14;;;;;;;0.30;0.20;;;8.30;99.90;;;;;;5102901;28;20254;-77
2023/11/19 10:38:40;;;;;;;0.30;0.20;;;8.40;99.90;;;;;;5104467;28;20211;-75
2023/11/19 10:41:06;;;;;;;0.30;0.20;;;8.40;99.90;;;;;;5103885;28;20187;-75
2023/11/19 10:43:44;;;;;;;0.30;0.20;;;8.50;99.90;;;;;;5105882;28;20238;-75
2023/11/19 10:46:11;;;;;;;0.30;0.20;;;8.50;99.90;;;;;;5105454;27;20262;-76
2023/11/19 10:48:38;;;;;;;0.30;0.20;;;8.50;99.90;;;;;;5106296;28;20226;-76
2023/11/19 10:51:07;;;;;;;0.30;0.20;;;8.50;99.90;;;;;;5105469;28;20190;-75
2023/11/19 10:53:38;;;;;;;0.30;0.20;;;8.50;99.90;;;;;;5104315;28;20253;-74
2023/11/19 10:56:08;;;;;;;0.30;0.20;;;8.60;99.90;;;;;;5121418;27;20172;-76
2023/11/19 10:58:37;;;;;;;0.30;0.25;;;8.60;99.90;;;;;;5116404;27;20245;-75
2023/11/19 11:01:11;;;;;;;0.30;0.20;;;8.60;99.90;;;;;;5104510;28;20168;-74
2023/11/19 11:03:40;;;;;;;0.73;0.70;;;8.60;99.90;;;;;;5103963;28;20212;-74
2023/11/19 11:06:06;;;;;;;0.30;0.20;;;8.60;99.90;;;;;;5104008;28;20237;-76
2023/11/19 11:08:34;;;;;;;0.30;0.20;;;8.70;99.90;;;;;;5103938;28;20219;-75
2023/11/19 11:11:01;;;;;;;13.73;12.32;;;8.60;99.90;;;;;;5106087;27;20184;-76
2023/11/19 11:13:29;;;;;;;0.30;0.20;;;8.60;99.90;;;;;;5105533;28;20204;-74
2023/11/19 11:15:57;;;;;;;3.03;2.78;;;8.50;99.90;;;;;;5104764;28;20227;-74
2023/11/19 11:18:24;;;;;;;0.30;0.20;;;8.50;99.90;;;;;;5105757;28;20195;-76
2023/11/19 11:20:56;;;;;;;0.30;0.20;;;8.50;99.90;;;;;;5107071;28;20186;-75
2023/11/19 11:23:54;;;;;;;0.30;0.20;;;8.60;99.90;;;;;;5104467;27;20277;-75
2023/11/19 11:26:34;;;;;;;0.30;0.20;;;8.70;99.90;;;;;;5105670;28;20202;-75
2023/11/19 11:29:17;;;;;;;0.30;0.30;;;8.70;99.90;;;;;;5105585;28;20223;-75
2023/11/19 11:31:52;;;;;;;0.30;0.20;;;8.70;99.90;;;;;;5106410;28;20243;-76
2023/11/19 11:34:42;;;;;;;0.30;0.20;;;8.80;99.90;;;;;;5105002;28;20199;-76
2023/11/19 11:37:26;;;;;;;0.30;0.20;;;8.80;99.90;;;;;;5106115;28;20202;-75
2023/11/19 11:39:52;;;;;;;0.30;0.20;;;8.80;99.90;;;;;;5104941;28;20203;-76
2023/11/19 11:42:18;;;;;;;0.30;0.20;;;8.90;99.90;;;;;;5085164;28;20782;-74
2023/11/19 11:45:07;;;;;;;0.30;0.30;;;8.90;99.90;;;;;;5105893;27;20422;-75
2023/11/19 11:47:42;;;;;;;0.30;0.20;;;9.00;99.90;;;;;;5097558;28;20245;-75
2023/11/19 11:50:10;;;;;;;0.30;0.20;;;9.00;99.90;;;;;;5116189;27;20746;-75
2023/11/19 11:52:57;;;;;;;0.30;0.20;;;9.00;99.90;;;;;;5106011;28;20457;-75
2023/11/19 11:55:36;;;;;;;0.30;0.20;;;8.90;99.90;;;;;;5104333;28;20187;-75
2023/11/19 11:58:02;;;;;;;0.30;0.20;;;8.90;99.90;;;;;;5106222;28;20207;-76
2023/11/19 12:00:33;;;;;;;0.30;0.20;;;8.90;99.90;;;;;;5106207;28;20163;-75
2023/11/19 12:03:04;;;;;;;0.30;0.20;;;8.90;99.90;;;;;;5104424;28;20208;-75
2023/11/19 12:05:30;;;;;;;0.30;0.20;;;8.90;99.90;;;;;;5104796;27;20186;-74
2023/11/19 12:08:01;;;;;;;0.30;0.30;;;9.00;99.90;;;;;;5091673;28;20187;-74
2023/11/19 12:10:33;;;;;;;0.30;0.20;;;9.00;99.90;;;;;;5105658;28;20590;-74
2023/11/19 12:13:00;;;;;;;0.30;0.20;;;9.10;99.90;;;;;;5105794;28;20618;-74
2023/11/19 12:15:27;;;;;;;0.30;0.20;;;9.10;99.90;;;;;;5105253;28;20284;-75
2023/11/19 12:17:54;;;;;;;0.30;0.20;;;9.10;99.90;;;;;;5103759;28;20184;-76
2023/11/19 12:20:22;;;;;;;0.30;0.20;;;9.10;99.90;;;;;;5105910;28;20188;-75
2023/11/19 12:22:49;;;;;;;0.30;0.20;;;9.00;99.90;;;;;;5103970;28;20223;-75
2023/11/19 12:25:22;;;;;;;0.30;0.30;;;9.00;99.90;;;;;;5104979;27;20191;-76
2023/11/19 12:27:52;;;;;;;0.30;0.20;;;9.00;99.90;;;;;;5109444;27;20191;-76
2023/11/19 12:30:28;;;;;;;0.30;0.20;;;9.00;99.90;;;;;;5105124;28;20230;-76
2023/11/19 12:32:54;;;;;;;0.30;0.20;;;9.00;99.90;;;;;;5103960;28;20191;-77
2023/11/19 12:35:20;;;;;;;0.30;0.20;;;9.10;99.90;;;;;;5101683;28;20567;-75
2023/11/19 12:37:50;;;;;;;0.30;0.20;;;9.10;99.90;;;;;;5105650;28;20179;-75
2023/11/19 12:40:24;;;;;;;0.30;0.20;;;9.10;99.90;;;;;;5101885;28;20334;-77
2023/11/19 12:42:51;;;;;;;2.05;1.95;;;9.10;99.90;;;;;;5100348;28;20204;-76
2023/11/19 12:45:19;;;;;;;0.30;0.20;;;9.10;99.90;;;;;;5101835;28;20565;-76
2023/11/19 12:47:47;;;;;;;0.30;0.20;;;9.10;99.90;;;;;;5115792;27;20893;-75
2023/11/19 12:50:12;;;;;;;0.30;0.20;;;9.10;99.90;;;;;;5117896;27;20604;-75
2023/11/19 12:52:39;;;;;;;0.30;0.20;;;9.10;99.90;;;;;;5117157;27;20452;-76
2023/11/19 12:55:09;;;;;;;0.30;0.20;;;9.10;99.90;;;;;;5102264;28;20264;-76
2023/11/19 12:57:38;;;;;;;0.30;0.20;;;9.10;99.90;;;;;;5101950;28;20467;-75